Terminal Aerodrome Forecast
Issued by NWS Wakefield, VA

Home | Current Version | Previous Version | Text Only | Print | Product List | Glossary On
Versions: 1 2 3 4 5 6 7 8 9 10 11 12 13 14 15 16 17
000
FTUS41 KAKQ 221400 AAA
TAFORF
TAF AMD
KORF 221428Z 2214/2312 33010G18KT P6SM -RA BKN010 OVC050
      TEMPO 2214/2217 2SM +RA BKN008
     FM221700 34014G22KT P6SM -RA BKN012 OVC040
     FM230000 34015G23KT P6SM OVC030
     FM230600 32013G22KT P6SM BKN050=

USA.gov is the U.S. government's official web portal to all federal, state and local government web resources and services.